createdAt,value
2018-06-13T00:00:33.295Z,14.73
2018-06-13T00:01:33.263Z,14.79
2018-06-13T00:02:33.435Z,14.82
2018-06-13T00:03:33.531Z,14.70
2018-06-13T00:04:33.711Z,14.70
2018-06-13T00:05:33.787Z,14.68
2018-06-13T00:06:33.679Z,14.60
2018-06-13T00:07:33.827Z,14.59
2018-06-13T00:08:33.720Z,14.55
2018-06-13T00:09:33.943Z,14.51
2018-06-13T00:10:34.060Z,14.51
2018-06-13T00:11:33.948Z,14.53
2018-06-13T00:12:33.972Z,14.41
2018-06-13T00:13:34.040Z,14.41
2018-06-13T00:14:34.204Z,14.37
2018-06-13T00:15:34.164Z,14.41
2018-06-13T00:16:34.228Z,14.43
2018-06-13T00:17:34.292Z,14.35
2018-06-13T00:18:34.355Z,14.30
2018-06-13T00:19:34.428Z,14.29
2018-06-13T00:20:34.499Z,14.32
2018-06-13T00:21:34.552Z,14.22
2018-06-13T00:22:34.620Z,14.30
2018-06-13T00:23:34.675Z,14.15
2018-06-13T00:24:34.748Z,14.15
2018-06-13T00:25:34.812Z,14.12
2018-06-13T00:26:34.875Z,14.15
2018-06-13T00:27:34.932Z,14.07
2018-06-13T00:28:34.996Z,14.05
2018-06-13T00:29:35.072Z,14.07
2018-06-13T00:30:35.132Z,14.04
2018-06-13T00:31:35.188Z,14.07
2018-06-13T00:32:35.253Z,14.07
2018-06-13T00:33:35.317Z,13.99
2018-06-13T00:34:35.389Z,14.00
2018-06-13T00:35:35.453Z,13.96
2018-06-13T00:36:35.510Z,13.95
2018-06-13T00:37:35.576Z,13.89
2018-06-13T00:38:35.637Z,13.90
2018-06-13T00:39:35.708Z,13.86
2018-06-13T00:40:35.779Z,13.81
2018-06-13T00:41:35.829Z,13.77
2018-06-13T00:42:35.897Z,13.89
2018-06-13T00:43:35.957Z,13.79
2018-06-13T00:44:36.033Z,13.87
2018-06-13T00:45:36.097Z,13.90
2018-06-13T00:46:36.152Z,13.85
2018-06-13T00:47:36.213Z,13.92
2018-06-13T00:48:36.279Z,13.86
2018-06-13T00:49:36.352Z,13.89
2018-06-13T00:50:36.461Z,13.79
2018-06-13T00:51:36.469Z,13.86
2018-06-13T00:52:36.569Z,13.77
2018-06-13T00:53:36.599Z,13.74
2018-06-13T00:54:36.674Z,13.78
2018-06-13T00:55:36.733Z,13.74
2018-06-13T00:56:36.789Z,13.79
2018-06-13T00:57:36.853Z,13.87
2018-06-13T00:58:36.917Z,13.79
2018-06-13T00:59:36.989Z,13.83
2018-06-13T01:00:37.054Z,13.75
2018-06-13T01:01:37.109Z,13.75
2018-06-13T01:02:37.173Z,13.65
2018-06-13T01:03:37.237Z,13.68
2018-06-13T01:04:37.470Z,13.63
2018-06-13T01:05:37.366Z,13.71
2018-06-13T01:06:37.430Z,13.70
2018-06-13T01:07:37.494Z,13.68
2018-06-13T01:08:37.558Z,13.72
2018-06-13T01:09:37.626Z,13.74
2018-06-13T01:10:37.698Z,13.70
2018-06-13T01:11:37.754Z,13.70
2018-06-13T01:12:37.814Z,13.72
2018-06-13T01:13:37.878Z,13.75
2018-06-13T01:14:37.946Z,13.75
2018-06-13T01:15:38.010Z,13.77
2018-06-13T01:16:38.074Z,13.72
2018-06-13T01:17:38.134Z,13.72
2018-06-13T01:18:38.198Z,13.74
2018-06-13T01:19:38.418Z,13.74
2018-06-13T01:20:38.326Z,13.72
2018-06-13T01:21:38.386Z,13.77
2018-06-13T01:22:38.454Z,13.78
2018-06-13T01:23:38.518Z,13.65
2018-06-13T01:24:38.587Z,13.68
2018-06-13T01:25:38.651Z,13.70
2018-06-13T01:26:38.702Z,13.68
2018-06-13T01:27:38.770Z,13.68
2018-06-13T01:28:38.839Z,13.67
2018-06-13T01:29:38.906Z,13.72
2018-06-13T01:30:38.971Z,13.68
2018-06-13T01:31:39.026Z,13.65
2018-06-13T01:32:39.090Z,13.63
2018-06-13T01:33:39.155Z,13.60
2018-06-13T01:34:39.382Z,13.57
2018-06-13T01:35:39.283Z,13.59
2018-06-13T01:36:39.347Z,13.62
2018-06-13T01:37:39.415Z,13.57
2018-06-13T01:38:39.475Z,13.53
2018-06-13T01:39:39.546Z,13.56
2018-06-13T01:40:39.610Z,13.56
2018-06-13T01:41:39.667Z,13.54
2018-06-13T01:42:39.751Z,13.59
2018-06-13T01:43:39.794Z,13.59
2018-06-13T01:44:39.867Z,13.59
2018-06-13T01:45:39.927Z,13.60
2018-06-13T01:46:39.987Z,13.70
2018-06-13T01:47:40.051Z,13.60
2018-06-13T01:48:40.115Z,13.74
2018-06-13T01:49:40.331Z,13.83
2018-06-13T01:50:40.243Z,13.79
2018-06-13T01:51:40.307Z,13.72
2018-06-13T01:52:40.372Z,13.71
2018-06-13T01:53:40.437Z,13.75
2018-06-13T01:54:40.503Z,13.93
2018-06-13T01:55:40.568Z,13.87
2018-06-13T01:56:40.627Z,13.90
2018-06-13T01:57:40.717Z,13.92
2018-06-13T01:58:40.752Z,13.89
2018-06-13T01:59:40.824Z,14.08
2018-06-13T02:00:40.887Z,14.03
2018-06-13T02:01:40.944Z,14.05
2018-06-13T02:02:41.012Z,14.04
2018-06-13T02:03:41.072Z,14.11
2018-06-13T02:04:41.136Z,14.12
2018-06-13T02:05:41.308Z,14.14
2018-06-13T02:06:41.264Z,14.10
2018-06-13T02:07:41.328Z,14.17
2018-06-13T02:08:41.392Z,14.20
2018-06-13T02:09:41.456Z,14.23
2018-06-13T02:10:41.528Z,14.17
2018-06-13T02:11:41.592Z,14.26
2018-06-13T02:12:41.648Z,14.23
2018-06-13T02:13:41.713Z,14.20
2018-06-13T02:14:41.778Z,14.35
2018-06-13T02:15:41.848Z,14.35
2018-06-13T02:16:41.917Z,14.32
2018-06-13T02:17:41.968Z,14.30
2018-06-13T02:18:42.033Z,14.36
2018-06-13T02:19:42.097Z,14.40
2018-06-13T02:20:42.320Z,14.35
2018-06-13T02:21:42.225Z,14.40
2018-06-13T02:22:42.289Z,14.35
2018-06-13T02:23:42.353Z,14.32
2018-06-13T02:24:42.417Z,14.30
2018-06-13T02:25:42.489Z,14.41
2018-06-13T02:26:42.553Z,14.40
2018-06-13T02:27:42.609Z,14.40
2018-06-13T02:28:42.675Z,14.44
2018-06-13T02:29:42.737Z,14.44
2018-06-13T02:30:42.809Z,14.36
2018-06-13T02:31:42.880Z,14.50
2018-06-13T02:32:42.933Z,14.41
2018-06-13T02:33:42.994Z,14.50
2018-06-13T02:34:43.061Z,14.53
2018-06-13T02:35:43.244Z,14.51
2018-06-13T02:36:43.194Z,14.51
2018-06-13T02:37:43.249Z,14.48
2018-06-13T02:38:43.358Z,14.45
2018-06-13T02:39:43.378Z,14.51
2018-06-13T02:40:43.453Z,14.50
2018-06-13T02:41:43.514Z,14.55
2018-06-13T02:42:43.570Z,14.51
2018-06-13T02:43:43.634Z,14.58
2018-06-13T02:44:43.698Z,14.48
2018-06-13T02:45:43.770Z,14.48
2018-06-13T02:46:43.837Z,14.40
2018-06-13T02:47:43.890Z,14.55
2018-06-13T02:48:43.954Z,14.59
2018-06-13T02:49:44.018Z,14.54
2018-06-13T02:50:44.190Z,14.50
2018-06-13T02:51:44.146Z,14.59
2018-06-13T02:52:44.210Z,14.55
2018-06-13T02:53:44.274Z,14.50
2018-06-13T02:54:44.342Z,14.60
2018-06-13T02:55:44.411Z,14.58
2018-06-13T02:56:44.474Z,14.50
2018-06-13T02:57:44.530Z,14.51
2018-06-13T02:58:44.595Z,14.55
2018-06-13T02:59:44.658Z,14.51
2018-06-13T03:00:44.731Z,14.58
2018-06-13T03:01:44.794Z,14.63
2018-06-13T03:02:44.859Z,14.60
2018-06-13T03:03:44.914Z,14.65
2018-06-13T03:04:44.979Z,14.62
2018-06-13T03:05:45.051Z,14.59
2018-06-13T03:06:45.115Z,14.58
2018-06-13T03:07:45.171Z,14.60
2018-06-13T03:08:45.234Z,14.58
2018-06-13T03:09:45.299Z,14.68
2018-06-13T03:10:45.478Z,14.55
2018-06-13T03:11:45.427Z,14.63
2018-06-13T03:12:45.495Z,14.63
2018-06-13T03:13:45.555Z,14.60
2018-06-13T03:14:45.627Z,14.63
2018-06-13T03:15:45.691Z,14.60
2018-06-13T03:16:45.756Z,14.60
2018-06-13T03:17:45.812Z,14.59
2018-06-13T03:18:45.875Z,14.63
2018-06-13T03:19:45.939Z,14.65
2018-06-13T03:20:46.040Z,14.63
2018-06-13T03:21:46.075Z,14.63
2018-06-13T03:22:46.131Z,14.55
2018-06-13T03:23:46.200Z,14.66
2018-06-13T03:24:46.259Z,14.66
2018-06-13T03:25:46.400Z,14.60
2018-06-13T03:26:46.387Z,14.59
2018-06-13T03:27:46.452Z,14.66
2018-06-13T03:28:46.516Z,14.65
2018-06-13T03:29:46.579Z,14.63
2018-06-13T03:30:46.652Z,14.65
2018-06-13T03:31:46.723Z,14.66
2018-06-13T03:32:46.776Z,14.69
2018-06-13T03:33:46.837Z,14.66
2018-06-13T03:34:46.899Z,14.63
2018-06-13T03:35:46.972Z,14.65
2018-06-13T03:36:47.036Z,14.66
2018-06-13T03:37:47.092Z,14.70
2018-06-13T03:38:47.156Z,14.66
2018-06-13T03:39:47.220Z,14.60
2018-06-13T03:40:47.291Z,14.62
2018-06-13T03:41:47.461Z,14.68
2018-06-13T03:42:47.413Z,14.68
2018-06-13T03:43:47.476Z,14.68
2018-06-13T03:44:47.545Z,14.70
2018-06-13T03:45:47.605Z,14.70
2018-06-13T03:46:47.676Z,14.72
2018-06-13T03:47:47.741Z,14.73
2018-06-13T03:48:47.801Z,14.77
2018-06-13T03:49:48.085Z,14.77
2018-06-13T03:50:47.936Z,14.82
2018-06-13T03:51:47.997Z,14.84
2018-06-13T03:52:48.061Z,14.77
2018-06-13T03:53:48.117Z,14.73
2018-06-13T03:54:48.189Z,14.82
2018-06-13T03:55:48.249Z,14.81
2018-06-13T03:56:48.433Z,14.81
2018-06-13T03:57:48.373Z,14.89
2018-06-13T03:58:48.439Z,14.86
2018-06-13T03:59:48.506Z,14.84
2018-06-13T04:00:48.569Z,14.89
2018-06-13T04:01:48.660Z,14.82
2018-06-13T04:02:48.709Z,14.88
2018-06-13T04:03:48.761Z,14.94
2018-06-13T04:04:48.825Z,14.89
2018-06-13T04:05:48.890Z,14.89
2018-06-13T04:06:48.957Z,14.88
2018-06-13T04:07:49.022Z,14.91
2018-06-13T04:08:49.081Z,14.89
2018-06-13T04:09:49.146Z,14.85
2018-06-13T04:10:49.217Z,14.89
2018-06-13T04:11:49.274Z,14.96
2018-06-13T04:12:49.426Z,14.86
2018-06-13T04:13:49.402Z,14.99
2018-06-13T04:14:49.554Z,14.99
2018-06-13T04:15:49.530Z,14.91
2018-06-13T04:16:49.594Z,15.06
2018-06-13T04:17:49.662Z,14.99
2018-06-13T04:18:49.726Z,15.04
2018-06-13T04:19:49.786Z,15.06
2018-06-13T04:20:49.851Z,15.00
2018-06-13T04:21:49.915Z,15.06
2018-06-13T04:22:49.982Z,15.04
2018-06-13T04:23:50.051Z,15.14
2018-06-13T04:24:50.106Z,15.15
2018-06-13T04:25:50.175Z,15.09
2018-06-13T04:26:50.249Z,15.14
2018-06-13T04:27:50.460Z,15.17
2018-06-13T04:28:50.367Z,15.21
2018-06-13T04:29:50.428Z,15.14
2018-06-13T04:30:50.491Z,15.15
2018-06-13T04:31:50.554Z,15.19
2018-06-13T04:32:50.687Z,15.21
2018-06-13T04:33:50.691Z,15.21
2018-06-13T04:34:50.746Z,15.29
2018-06-13T04:35:50.852Z,15.25
2018-06-13T04:36:50.879Z,15.22
2018-06-13T04:37:50.946Z,15.31
2018-06-13T04:38:51.011Z,15.18
2018-06-13T04:39:51.070Z,15.25
2018-06-13T04:40:51.135Z,15.25
2018-06-13T04:41:51.201Z,15.35
2018-06-13T04:42:51.263Z,15.29
2018-06-13T04:43:51.351Z,15.31
2018-06-13T04:44:51.392Z,15.35
2018-06-13T04:45:51.455Z,15.29
2018-06-13T04:46:51.519Z,15.28
2018-06-13T04:47:51.583Z,15.35
2018-06-13T04:48:51.655Z,15.40
2018-06-13T04:49:51.719Z,15.42
2018-06-13T04:50:51.775Z,15.43
2018-06-13T04:51:51.839Z,15.39
2018-06-13T04:52:51.903Z,15.44
2018-06-13T04:53:51.975Z,15.46
2018-06-13T04:54:52.040Z,15.51
2018-06-13T04:55:52.095Z,15.61
2018-06-13T04:56:52.164Z,15.59
2018-06-13T04:57:52.223Z,15.54
2018-06-13T04:58:52.403Z,15.54
2018-06-13T04:59:52.355Z,15.57
2018-06-13T05:00:52.420Z,15.62
2018-06-13T05:01:52.484Z,15.54
2018-06-13T05:02:52.548Z,15.62
2018-06-13T05:03:52.619Z,15.70
2018-06-13T05:04:52.684Z,15.86
2018-06-13T05:05:52.740Z,15.88
2018-06-13T05:06:52.804Z,16.00
2018-06-13T05:07:52.868Z,15.98
2018-06-13T05:08:52.939Z,16.09
2018-06-13T05:09:53.004Z,16.16
2018-06-13T05:10:53.064Z,16.28
2018-06-13T05:11:53.128Z,16.20
2018-06-13T05:12:53.192Z,16.38
2018-06-13T05:13:53.528Z,16.28
2018-06-13T05:14:53.396Z,16.33
2018-06-13T05:15:53.388Z,16.42
2018-06-13T05:16:53.452Z,16.28
2018-06-13T05:17:53.516Z,16.36
2018-06-13T05:18:53.588Z,16.39
2018-06-13T05:19:53.653Z,16.38
2018-06-13T05:20:53.717Z,16.43
2018-06-13T05:21:53.776Z,16.42
2018-06-13T05:22:53.840Z,16.36
2018-06-13T05:23:53.913Z,16.53
2018-06-13T05:24:53.976Z,16.66
2018-06-13T05:25:54.036Z,16.60
2018-06-13T05:26:54.102Z,16.65
2018-06-13T05:27:54.165Z,16.49
2018-06-13T05:28:54.249Z,16.49
2018-06-13T05:29:54.296Z,16.39
2018-06-13T05:30:54.361Z,16.35
2018-06-13T05:31:54.425Z,16.38
2018-06-13T05:32:54.488Z,16.38
2018-06-13T05:33:54.563Z,16.41
2018-06-13T05:34:54.629Z,16.36
2018-06-13T05:35:54.685Z,16.38
2018-06-13T05:36:54.755Z,16.50
2018-06-13T05:37:54.815Z,16.53
2018-06-13T05:38:54.888Z,16.49
2018-06-13T05:39:54.954Z,16.51
2018-06-13T05:40:55.014Z,16.53
2018-06-13T05:41:55.117Z,16.32
2018-06-13T05:42:55.141Z,16.29
2018-06-13T05:43:55.406Z,16.31
2018-06-13T05:44:55.270Z,16.24
2018-06-13T05:45:55.334Z,16.21
2018-06-13T05:46:55.401Z,16.20
2018-06-13T05:47:55.466Z,16.17
2018-06-13T05:48:55.537Z,16.28
2018-06-13T05:49:55.602Z,16.23
2018-06-13T05:50:55.657Z,16.21
2018-06-13T05:51:55.725Z,16.20
2018-06-13T05:52:55.796Z,16.23
2018-06-13T05:53:55.861Z,16.29
2018-06-13T05:54:55.954Z,16.35
2018-06-13T05:55:55.989Z,16.29
2018-06-13T05:56:56.050Z,16.26
2018-06-13T05:57:56.114Z,16.31
2018-06-13T05:58:56.298Z,16.33
2018-06-13T05:59:56.254Z,16.39
2018-06-13T06:00:56.310Z,16.42
2018-06-13T06:01:56.374Z,16.54
2018-06-13T06:02:56.438Z,16.60
2018-06-13T06:03:56.510Z,16.69
2018-06-13T06:04:56.575Z,16.64
2018-06-13T06:05:56.634Z,16.53
2018-06-13T06:06:56.699Z,16.61
2018-06-13T06:07:56.762Z,16.66
2018-06-13T06:08:56.834Z,16.58
2018-06-13T06:09:56.898Z,16.60
2018-06-13T06:10:56.959Z,16.60
2018-06-13T06:11:57.023Z,16.54
2018-06-13T06:12:57.087Z,16.68
2018-06-13T06:13:57.462Z,16.71
2018-06-13T06:14:57.219Z,16.74
2018-06-13T06:15:57.282Z,16.76
2018-06-13T06:16:57.348Z,16.91
2018-06-13T06:17:57.411Z,16.94
2018-06-13T06:18:57.483Z,17.08
2018-06-13T06:19:57.551Z,17.02
2018-06-13T06:20:57.607Z,17.06
2018-06-13T06:21:57.671Z,17.05
2018-06-13T06:22:57.739Z,17.12
2018-06-13T06:23:57.815Z,17.12
2018-06-13T06:24:57.875Z,17.27
2018-06-13T06:25:57.935Z,17.31
2018-06-13T06:26:58.000Z,17.20
2018-06-13T06:27:58.109Z,17.15
2018-06-13T06:28:58.148Z,17.15
2018-06-13T06:29:58.196Z,17.16
2018-06-13T06:30:58.259Z,17.33
2018-06-13T06:31:58.328Z,17.31
2018-06-13T06:32:58.392Z,17.27
2018-06-13T06:33:58.464Z,17.22
2018-06-13T06:34:58.528Z,17.09
2018-06-13T06:35:58.589Z,17.11
2018-06-13T06:36:58.691Z,16.97
2018-06-13T06:37:58.720Z,17.12
2018-06-13T06:38:58.793Z,17.14
2018-06-13T06:39:58.856Z,17.33
2018-06-13T06:40:58.917Z,17.38
2018-06-13T06:41:58.984Z,17.41
2018-06-13T06:42:59.044Z,17.48
2018-06-13T06:43:59.129Z,17.34
2018-06-13T06:44:59.176Z,17.33
2018-06-13T06:45:59.245Z,17.36
2018-06-13T06:46:59.313Z,17.31
2018-06-13T06:47:59.373Z,17.30
2018-06-13T06:48:59.445Z,17.38
2018-06-13T06:49:59.513Z,17.51
2018-06-13T06:50:59.571Z,17.52
2018-06-13T06:51:59.637Z,17.74
2018-06-13T06:52:59.709Z,17.63
2018-06-13T06:53:59.773Z,17.65
2018-06-13T06:54:59.841Z,17.71
2018-06-13T06:55:59.901Z,17.74
2018-06-13T06:56:59.965Z,17.82
2018-06-13T06:58:00.030Z,17.83
2018-06-13T06:59:00.114Z,17.85
2018-06-13T07:00:00.163Z,17.86
2018-06-13T07:01:00.229Z,17.95
2018-06-13T07:02:00.294Z,17.90
2018-06-13T07:03:00.359Z,17.97
2018-06-13T07:04:00.430Z,18.22
2018-06-13T07:05:00.497Z,18.34
2018-06-13T07:06:00.558Z,18.43
2018-06-13T07:07:00.621Z,18.40
2018-06-13T07:08:00.690Z,18.71
2018-06-13T07:09:00.764Z,18.89
2018-06-13T07:10:00.826Z,19.00
2018-06-13T07:11:00.886Z,18.93
2018-06-13T07:12:00.954Z,19.02
2018-06-13T07:13:01.018Z,19.00
2018-06-13T07:14:01.102Z,19.12
2018-06-13T07:15:01.152Z,19.22
2018-06-13T07:16:01.218Z,19.21
2018-06-13T07:17:01.292Z,19.36
2018-06-13T07:18:01.351Z,19.36
2018-06-13T07:19:01.444Z,19.21
2018-06-13T07:20:01.495Z,18.96
2018-06-13T07:21:01.562Z,18.78
2018-06-13T07:22:01.619Z,18.58
2018-06-13T07:23:01.682Z,18.56
2018-06-13T07:24:01.761Z,18.53
2018-06-13T07:25:01.823Z,18.37
2018-06-13T07:26:01.883Z,18.18
2018-06-13T07:27:01.953Z,18.11
2018-06-13T07:28:02.016Z,18.01
2018-06-13T07:29:02.103Z,17.97
2018-06-13T07:30:02.157Z,17.82
2018-06-13T07:31:02.215Z,17.54
2018-06-13T07:32:02.284Z,17.38
2018-06-13T07:33:02.347Z,17.27
2018-06-13T07:34:02.431Z,17.31
2018-06-13T07:35:02.491Z,17.33
2018-06-13T07:36:02.547Z,17.31
2018-06-13T07:37:02.611Z,17.34
2018-06-13T07:38:02.682Z,17.26
2018-06-13T07:39:02.751Z,17.31
2018-06-13T07:40:02.815Z,17.33
2018-06-13T07:41:02.875Z,17.26
2018-06-13T07:42:02.944Z,17.26
2018-06-13T07:43:03.007Z,17.34
2018-06-13T07:44:03.467Z,17.31
2018-06-13T07:45:03.139Z,17.30
2018-06-13T07:46:03.203Z,17.39
2018-06-13T07:47:03.271Z,17.39
2018-06-13T07:48:03.336Z,17.34
2018-06-13T07:49:03.404Z,17.20
2018-06-13T07:50:03.484Z,17.16
2018-06-13T07:51:03.535Z,17.05
2018-06-13T07:52:03.599Z,16.99
2018-06-13T07:53:03.668Z,16.90
2018-06-13T07:54:03.732Z,16.94
2018-06-13T07:55:03.806Z,16.83
2018-06-13T07:56:03.868Z,16.89
2018-06-13T07:57:03.928Z,16.79
2018-06-13T07:58:03.992Z,16.78
2018-06-13T07:59:04.060Z,16.75
2018-06-13T08:00:04.452Z,16.71
2018-06-13T08:01:04.192Z,16.75
2018-06-13T08:02:04.257Z,16.75
2018-06-13T08:03:04.322Z,16.72
2018-06-13T08:04:04.388Z,16.75
2018-06-13T08:05:04.460Z,16.68
2018-06-13T08:06:04.525Z,16.69
2018-06-13T08:07:04.584Z,16.51
2018-06-13T08:08:04.648Z,16.58
2018-06-13T08:09:04.713Z,16.36
2018-06-13T08:10:04.785Z,16.47
2018-06-13T08:11:04.849Z,16.47
2018-06-13T08:12:04.913Z,16.49
2018-06-13T08:13:04.982Z,16.50
2018-06-13T08:14:05.041Z,16.54
2018-06-13T08:15:05.349Z,16.58
2018-06-13T08:16:05.169Z,16.56
2018-06-13T08:17:05.238Z,16.54
2018-06-13T08:18:05.300Z,16.66
2018-06-13T08:19:05.365Z,16.75
2018-06-13T08:20:05.437Z,16.74
2018-06-13T08:21:05.511Z,16.71
2018-06-13T08:22:05.560Z,16.71
2018-06-13T08:23:05.625Z,16.81
2018-06-13T08:24:05.692Z,16.84
2018-06-13T08:25:05.766Z,16.89
2018-06-13T08:26:05.860Z,16.87
2018-06-13T08:27:05.889Z,16.91
2018-06-13T08:28:05.953Z,16.86
2018-06-13T08:29:06.018Z,16.86
2018-06-13T08:30:06.193Z,16.89
2018-06-13T08:31:06.149Z,16.83
2018-06-13T08:32:06.213Z,16.78
2018-06-13T08:33:06.277Z,16.87
2018-06-13T08:34:06.345Z,16.91
2018-06-13T08:35:06.417Z,16.86
2018-06-13T08:36:06.481Z,16.91
2018-06-13T08:37:06.541Z,16.90
2018-06-13T08:38:06.605Z,16.84
2018-06-13T08:39:06.669Z,16.99
2018-06-13T08:40:06.742Z,16.96
2018-06-13T08:41:06.810Z,16.99
2018-06-13T08:42:06.866Z,17.01
2018-06-13T08:43:06.929Z,17.05
2018-06-13T08:44:06.997Z,17.12
2018-06-13T08:45:07.070Z,17.09
2018-06-13T08:46:07.133Z,17.19
2018-06-13T08:47:07.193Z,17.22
2018-06-13T08:48:07.257Z,17.05
2018-06-13T08:49:07.321Z,17.19
2018-06-13T08:50:07.394Z,17.20
2018-06-13T08:51:07.458Z,17.30
2018-06-13T08:52:07.518Z,17.34
2018-06-13T08:53:07.587Z,17.33
2018-06-13T08:54:07.698Z,17.33
2018-06-13T08:55:07.722Z,17.45
2018-06-13T08:56:07.786Z,17.49
2018-06-13T08:57:07.846Z,17.52
2018-06-13T08:58:07.910Z,17.63
2018-06-13T08:59:07.978Z,17.67
2018-06-13T09:00:08.050Z,17.60
2018-06-13T09:01:08.116Z,17.74
2018-06-13T09:02:08.174Z,17.72
2018-06-13T09:03:08.238Z,17.85
2018-06-13T09:04:08.302Z,17.82
2018-06-13T09:05:08.386Z,17.82
2018-06-13T09:06:08.435Z,17.70
2018-06-13T09:07:08.500Z,17.64
2018-06-13T09:08:08.567Z,17.67
2018-06-13T09:09:08.631Z,17.49
2018-06-13T09:10:08.703Z,17.44
2018-06-13T09:11:08.771Z,17.30
2018-06-13T09:12:08.827Z,17.30
2018-06-13T09:13:08.895Z,17.29
2018-06-13T09:14:08.959Z,17.46
2018-06-13T09:15:09.036Z,17.38
2018-06-13T09:16:09.099Z,17.23
2018-06-13T09:17:09.155Z,17.29
2018-06-13T09:18:09.223Z,17.33
2018-06-13T09:19:09.287Z,17.23
2018-06-13T09:20:09.360Z,17.05
2018-06-13T09:21:09.423Z,17.15
2018-06-13T09:22:09.483Z,17.15
2018-06-13T09:23:09.547Z,17.15
2018-06-13T09:24:09.616Z,17.09
2018-06-13T09:25:09.688Z,17.22
2018-06-13T09:26:09.751Z,17.33
2018-06-13T09:27:09.811Z,17.31
2018-06-13T09:28:09.877Z,17.42
2018-06-13T09:29:09.944Z,17.48
2018-06-13T09:30:10.017Z,17.54
2018-06-13T09:31:10.139Z,17.56
2018-06-13T09:32:10.140Z,17.54
2018-06-13T09:33:10.205Z,17.57
2018-06-13T09:34:10.267Z,17.44
2018-06-13T09:35:10.364Z,17.31
2018-06-13T09:36:10.400Z,17.42
2018-06-13T09:37:10.469Z,17.44
2018-06-13T09:38:10.532Z,17.56
2018-06-13T09:39:10.599Z,17.63
2018-06-13T09:40:10.672Z,17.67
2018-06-13T09:41:10.736Z,17.79
2018-06-13T09:42:10.796Z,17.78
2018-06-13T09:43:10.862Z,17.74
2018-06-13T09:44:10.926Z,17.78
2018-06-13T09:45:11.013Z,17.70
2018-06-13T09:46:12.016Z,17.74
2018-06-13T09:47:15.139Z,17.76
2018-06-13T09:48:11.189Z,17.80
2018-06-13T09:49:11.257Z,17.86
2018-06-13T09:50:11.349Z,17.85
2018-06-13T09:51:11.652Z,17.95
2018-06-13T09:52:11.453Z,18.03
2018-06-13T09:53:11.517Z,17.95
2018-06-13T09:54:11.581Z,18.01
2018-06-13T09:55:11.649Z,18.08
2018-06-13T09:56:11.723Z,18.13
2018-06-13T09:57:11.787Z,18.07
2018-06-13T09:58:11.845Z,18.20
2018-06-13T09:59:11.918Z,18.26
2018-06-13T10:00:11.977Z,18.25
2018-06-13T10:01:12.050Z,18.28
2018-06-13T10:02:12.121Z,18.31
2018-06-13T10:03:12.173Z,18.28
2018-06-13T10:04:12.242Z,18.22
2018-06-13T10:05:12.306Z,18.19
2018-06-13T10:06:12.402Z,18.20
2018-06-13T10:07:12.438Z,18.29
2018-06-13T10:08:12.506Z,18.00
2018-06-13T10:09:12.570Z,18.18
2018-06-13T10:10:12.638Z,18.04
2018-06-13T10:11:12.761Z,18.13
2018-06-13T10:12:12.778Z,18.31
2018-06-13T10:13:12.834Z,18.23
2018-06-13T10:14:12.898Z,18.35
2018-06-13T10:15:12.969Z,18.22
2018-06-13T10:16:13.038Z,18.20
2018-06-13T10:17:13.106Z,18.34
2018-06-13T10:18:13.164Z,18.49
2018-06-13T10:19:13.230Z,18.49
2018-06-13T10:20:13.298Z,18.35
2018-06-13T10:21:13.384Z,18.49
2018-06-13T10:22:13.464Z,18.59
2018-06-13T10:23:13.494Z,18.47
2018-06-13T10:24:13.562Z,18.60
2018-06-13T10:25:13.626Z,18.35
2018-06-13T10:26:13.700Z,18.52
2018-06-13T10:27:13.766Z,18.44
2018-06-13T10:28:13.826Z,18.44
2018-06-13T10:29:13.891Z,18.53
2018-06-13T10:30:13.958Z,18.62
2018-06-13T10:31:14.030Z,18.73
2018-06-13T10:32:14.096Z,18.75
2018-06-13T10:33:14.154Z,18.78
2018-06-13T10:34:14.235Z,18.70
2018-06-13T10:35:14.286Z,18.71
2018-06-13T10:36:14.363Z,18.55
2018-06-13T10:37:14.435Z,18.63
2018-06-13T10:38:14.487Z,18.62
2018-06-13T10:39:14.554Z,18.71
2018-06-13T10:40:14.618Z,18.75
2018-06-13T10:41:14.699Z,18.83
2018-06-13T10:42:14.758Z,18.93
2018-06-13T10:43:14.825Z,18.88
2018-06-13T10:44:14.890Z,18.80
2018-06-13T10:45:14.955Z,18.74
2018-06-13T10:46:15.023Z,18.78
2018-06-13T10:47:15.091Z,18.71
2018-06-13T10:48:15.152Z,18.58
2018-06-13T10:49:15.219Z,18.60
2018-06-13T10:50:15.283Z,18.63
2018-06-13T10:51:15.363Z,18.66
2018-06-13T10:52:15.415Z,18.60
2018-06-13T10:53:15.486Z,18.62
2018-06-13T10:54:15.547Z,18.53
2018-06-13T10:55:15.615Z,18.44
2018-06-13T10:56:15.687Z,18.50
2018-06-13T10:57:15.755Z,18.37
2018-06-13T10:58:15.815Z,18.22
2018-06-13T10:59:15.879Z,18.18
2018-06-13T11:00:15.947Z,17.95
2018-06-13T11:01:16.019Z,17.82
2018-06-13T11:02:16.088Z,17.87
2018-06-13T11:03:16.147Z,17.67
2018-06-13T11:04:16.211Z,17.52
2018-06-13T11:05:16.280Z,17.38
2018-06-13T11:06:16.679Z,17.33
2018-06-13T11:07:16.408Z,17.29
2018-06-13T11:08:16.476Z,17.22
2018-06-13T11:09:16.544Z,17.06
2018-06-13T11:10:16.607Z,17.05
2018-06-13T11:11:16.674Z,17.12
2018-06-13T11:12:16.848Z,17.09
2018-06-13T11:13:16.804Z,17.05
2018-06-13T11:14:16.872Z,17.05
2018-06-13T11:15:16.935Z,17.06
2018-06-13T11:16:17.003Z,17.05
2018-06-13T11:17:17.092Z,17.01
2018-06-13T11:18:17.137Z,16.99
2018-06-13T11:19:17.200Z,16.96
2018-06-13T11:20:17.272Z,17.08
2018-06-13T11:21:17.328Z,17.11
2018-06-13T11:22:17.400Z,17.04
2018-06-13T11:23:17.468Z,17.05
2018-06-13T11:24:17.533Z,17.12
2018-06-13T11:25:17.593Z,17.05
2018-06-13T11:26:17.656Z,17.12
2018-06-13T11:27:17.728Z,17.16
2018-06-13T11:28:17.800Z,17.23
2018-06-13T11:29:17.855Z,17.30
2018-06-13T11:30:17.921Z,17.44
2018-06-13T11:31:17.984Z,17.54
2018-06-13T11:32:18.056Z,17.82
2018-06-13T11:33:18.120Z,17.94
2018-06-13T11:34:18.181Z,17.94
2018-06-13T11:35:18.248Z,18.13
2018-06-13T11:36:18.309Z,18.40
2018-06-13T11:37:18.385Z,18.50
2018-06-13T11:38:18.449Z,18.77
2018-06-13T11:39:18.509Z,18.71
2018-06-13T11:40:18.580Z,18.98
2018-06-13T11:41:18.654Z,19.14
2018-06-13T11:42:18.714Z,19.11
2018-06-13T11:43:18.777Z,19.12
2018-06-13T11:44:18.841Z,19.21
2018-06-13T11:45:18.905Z,19.30
2018-06-13T11:46:18.970Z,19.21
2018-06-13T11:47:19.041Z,19.21
2018-06-13T11:48:19.105Z,19.37
2018-06-13T11:49:19.170Z,19.52
2018-06-13T11:50:19.234Z,19.59
2018-06-13T11:51:19.301Z,19.69
2018-06-13T11:52:19.562Z,19.54
2018-06-13T11:53:19.434Z,19.51
2018-06-13T11:54:19.501Z,19.44
2018-06-13T11:55:19.569Z,19.49
2018-06-13T11:56:19.634Z,19.37
2018-06-13T11:57:19.706Z,19.29
2018-06-13T11:58:19.774Z,18.93
2018-06-13T11:59:19.837Z,18.81
2018-06-13T12:00:19.950Z,18.84
2018-06-13T12:01:19.966Z,18.77
2018-06-13T12:02:20.038Z,18.71
2018-06-13T12:03:20.106Z,18.74
2018-06-13T12:04:20.165Z,18.68
2018-06-13T12:05:20.230Z,18.59
2018-06-13T12:06:20.298Z,18.50
2018-06-13T12:07:20.472Z,18.28
2018-06-13T12:08:20.430Z,18.34
2018-06-13T12:09:20.498Z,18.34
2018-06-13T12:10:20.566Z,18.22
2018-06-13T12:11:20.628Z,18.22
2018-06-13T12:12:20.702Z,18.16
2018-06-13T12:13:20.766Z,18.23
2018-06-13T12:14:20.833Z,18.34
2018-06-13T12:15:20.895Z,18.37
2018-06-13T12:16:20.958Z,18.53
2018-06-13T12:17:21.030Z,18.49
2018-06-13T12:18:21.098Z,18.63
2018-06-13T12:19:21.159Z,18.74
2018-06-13T12:20:21.223Z,18.80
2018-06-13T12:21:21.291Z,18.84
2018-06-13T12:22:21.362Z,18.93
2018-06-13T12:23:21.428Z,18.96
2018-06-13T12:24:21.486Z,19.11
2018-06-13T12:25:21.555Z,19.26
2018-06-13T12:26:21.619Z,19.36
2018-06-13T12:27:21.695Z,19.51
2018-06-13T12:28:21.758Z,19.63
2018-06-13T12:29:21.818Z,19.69
2018-06-13T12:30:21.887Z,19.41
2018-06-13T12:31:21.957Z,19.70
2018-06-13T12:32:22.027Z,19.73
2018-06-13T12:33:22.091Z,19.84
2018-06-13T12:34:22.170Z,19.92
2018-06-13T12:35:22.219Z,20.07
2018-06-13T12:36:22.288Z,20.26
2018-06-13T12:37:22.363Z,20.34
2018-06-13T12:38:22.427Z,20.25
2018-06-13T12:39:22.487Z,20.39
2018-06-13T12:40:22.556Z,20.37
2018-06-13T12:41:22.620Z,20.41
2018-06-13T12:42:22.696Z,20.65
2018-06-13T12:43:22.760Z,20.58
2018-06-13T12:44:22.824Z,20.85
2018-06-13T12:45:22.888Z,20.96
2018-06-13T12:46:22.956Z,21.62
2018-06-13T12:47:23.032Z,21.88
2018-06-13T12:48:23.096Z,22.28
2018-06-13T12:49:23.160Z,22.60
2018-06-13T12:50:23.224Z,22.50
2018-06-13T12:51:23.293Z,22.44
2018-06-13T12:52:23.368Z,22.15
2018-06-13T12:53:23.437Z,21.89